Time;durP1;ratioP1;P1;durP2;ratioP2;P2;SDS_P1;SDS_P2;PMS_P1;PMS_P2;Temp;Humidity;BMP_temperature;BMP_pressure;BME280_temperature;BME280_humidity;BME280_pressure;Samples;Min_cycle;Max_cycle;Signal;HPM_P1;HPM_P2
2021/07/31 00:03:04;;;;;;;0.25;0.25;;;;;;;19.20;64.17;100430.03;5024137;22;20054;-90
2021/07/31 00:05:31;;;;;;;0.40;0.40;;;;;;;18.97;65.00;100426.97;4987954;28;20034;-90
2021/07/31 00:07:58;;;;;;;0.10;0.10;;;;;;;18.98;64.79;100431.38;4985697;28;20031;-90
2021/07/31 00:10:27;;;;;;;0.38;0.38;;;;;;;19.01;64.89;100428.50;4981014;28;20386;-91
2021/07/31 00:12:55;;;;;;;0.10;0.10;;;;;;;19.29;63.93;100432.16;4976702;28;20035;-92
2021/07/31 00:15:21;;;;;;;0.15;0.15;;;;;;;19.14;64.64;100433.97;4984264;28;20089;-91
2021/07/31 00:17:48;;;;;;;0.10;0.10;;;;;;;19.19;64.41;100433.66;4981419;28;20046;-91
2021/07/31 00:20:19;;;;;;;0.10;0.10;;;;;;;19.15;64.75;100435.72;4983243;28;20028;-90
2021/07/31 00:22:45;;;;;;;8.77;2.45;;;;;;;19.08;64.82;100431.69;4976775;28;20027;-91
2021/07/31 00:25:11;;;;;;;0.10;0.10;;;;;;;19.19;64.87;100425.63;4982386;28;20094;-91
2021/07/31 00:27:38;;;;;;;4.03;3.80;;;;;;;19.15;64.64;100424.09;4982529;28;20459;-91
2021/07/31 00:30:05;;;;;;;0.15;0.15;;;;;;;19.29;64.61;100425.91;4983127;28;20374;-92
2021/07/31 00:32:31;;;;;;;0.10;0.10;;;;;;;19.27;64.73;100415.25;4984969;28;20470;-92
2021/07/31 00:34:57;;;;;;;0.40;0.40;;;;;;;19.50;63.95;100419.19;4985482;28;20085;-92
2021/07/31 00:37:24;;;;;;;0.20;0.20;;;;;;;19.29;63.99;100418.72;4988003;28;20026;-92
2021/07/31 00:39:50;;;;;;;0.55;0.55;;;;;;;19.15;64.05;100424.97;4984475;28;20037;-93
2021/07/31 00:42:17;;;;;;;0.10;0.10;;;;;;;19.19;63.56;100431.00;4983905;28;20113;-93
2021/07/31 00:44:44;;;;;;;0.38;0.38;;;;;;;19.35;63.27;100418.34;4987316;28;20466;-91
2021/07/31 00:47:10;;;;;;;0.25;0.25;;;;;;;19.48;62.81;100431.00;4987109;28;20486;-91
2021/07/31 00:49:37;;;;;;;0.38;0.38;;;;;;;19.32;63.05;100417.66;4981174;28;20031;-90
2021/07/31 00:52:05;;;;;;;0.10;0.10;;;;;;;19.36;63.04;100417.34;4977444;28;20031;-93
2021/07/31 00:54:32;;;;;;;2.00;1.67;;;;;;;19.39;62.47;100422.53;4976491;28;20118;-91
2021/07/31 00:56:59;;;;;;;0.28;0.22;;;;;;;19.47;61.80;100421.19;4977320;28;20479;-93
2021/07/31 00:59:26;;;;;;;0.10;0.10;;;;;;;19.22;61.83;100414.69;4976374;28;20110;-91
2021/07/31 01:01:52;;;;;;;0.10;0.10;;;;;;;19.48;61.09;100421.09;4976095;28;20100;-91
2021/07/31 01:04:20;;;;;;;1.13;1.08;;;;;;;19.54;60.85;100418.00;4977134;28;20049;-91
2021/07/31 01:06:46;;;;;;;0.28;0.28;;;;;;;19.57;60.92;100425.00;4976256;28;20027;-93
2021/07/31 01:09:13;;;;;;;0.10;0.10;;;;;;;19.46;60.81;100422.16;4977036;28;20026;-95
2021/07/31 01:11:40;;;;;;;0.10;0.10;;;;;;;19.58;61.10;100431.22;4976958;28;20390;-93
2021/07/31 01:14:06;;;;;;;0.00;0.00;;;;;;;19.34;61.45;100430.03;4977041;28;20031;-91
2021/07/31 01:16:33;;;;;;;0.13;0.13;;;;;;;19.49;61.25;100432.69;4976057;28;20117;-93
2021/07/31 01:18:59;;;;;;;0.10;0.10;;;;;;;19.55;61.14;100432.28;4976098;28;20620;-93
2021/07/31 01:21:45;;;;;;;0.10;0.10;;;;;;;19.76;60.70;100423.81;4975887;28;20042;-91
2021/07/31 01:24:14;;;;;;;0.17;0.17;;;;;;;19.63;60.87;100430.00;4976993;28;20038;-92
2021/07/31 01:26:43;;;;;;;0.10;0.10;;;;;;;19.57;61.29;100430.38;4976811;28;20085;-93
2021/07/31 01:29:11;;;;;;;0.10;0.10;;;;;;;19.46;62.14;100436.44;4959608;28;20035;-92
2021/07/31 01:31:38;;;;;;;0.32;0.32;;;;;;;19.39;62.87;100430.59;4983030;28;20026;-93
2021/07/31 01:34:05;;;;;;;0.10;0.10;;;;;;;19.42;64.02;100426.84;4998273;28;20039;-93
2021/07/31 01:36:35;;;;;;;0.25;0.25;;;;;;;19.33;64.75;100433.69;4983729;28;20047;-90
2021/07/31 01:39:02;;;;;;;0.20;0.20;;;;;;;19.06;65.81;100447.88;4975852;28;20542;-87
2021/07/31 01:41:29;;;;;;;0.52;0.52;;;;;;;18.90;66.17;100447.97;4975924;28;20114;-90
2021/07/31 01:43:55;;;;;;;0.57;0.57;;;;;;;18.73;67.41;100448.97;4976152;28;20058;-89
2021/07/31 01:46:22;;;;;;;0.10;0.10;;;;;;;18.55;67.69;100436.66;4975250;28;20038;-88
2021/07/31 01:48:49;;;;;;;0.10;0.10;;;;;;;18.40;68.70;100447.31;4958245;28;20085;-89
2021/07/31 01:51:16;;;;;;;0.10;0.10;;;;;;;18.29;67.89;100436.38;4975974;28;20027;-90
2021/07/31 01:53:43;;;;;;;0.10;0.10;;;;;;;18.41;67.96;100435.66;4975819;28;20031;-88
2021/07/31 01:56:09;;;;;;;0.20;0.20;;;;;;;18.46;67.34;100442.56;4976567;28;20405;-89
2021/07/31 01:58:35;;;;;;;0.10;0.10;;;;;;;18.08;69.88;100455.47;4975608;28;20042;-87
2021/07/31 02:01:02;;;;;;;0.10;0.10;;;;;;;18.05;71.00;100444.91;4975536;28;20556;-88
2021/07/31 02:03:29;;;;;;;0.10;0.10;;;;;;;18.25;69.48;100440.19;4975684;28;20035;-89
2021/07/31 02:05:56;;;;;;;0.10;0.10;;;;;;;18.10;70.66;100434.75;4974608;28;20023;-89
2021/07/31 02:08:23;;;;;;;0.10;0.10;;;;;;;18.06;71.01;100441.25;4975450;28;20034;-90
2021/07/31 02:10:50;;;;;;;0.10;0.10;;;;;;;18.03;70.62;100437.91;4975986;28;20031;-90
2021/07/31 02:13:16;;;;;;;0.10;0.10;;;;;;;18.11;70.48;100438.31;4972646;28;20055;-89
2021/07/31 02:15:45;;;;;;;0.10;0.10;;;;;;;18.25;70.50;100440.19;4976033;28;20039;-90
2021/07/31 02:18:12;;;;;;;0.10;0.10;;;;;;;18.20;70.03;100448.50;4975656;28;20030;-89
2021/07/31 02:20:39;;;;;;;0.10;0.10;;;;;;;18.22;70.61;100437.72;4974916;28;20031;-89
2021/07/31 02:23:07;;;;;;;0.50;0.50;;;;;;;18.36;69.94;100444.94;4975140;28;20482;-90
2021/07/31 02:25:33;;;;;;;0.10;0.10;;;;;;;18.21;70.51;100450.22;4974992;28;20125;-89
2021/07/31 02:28:00;;;;;;;0.10;0.10;;;;;;;18.21;70.49;100455.59;4975460;28;20130;-90
2021/07/31 02:30:26;;;;;;;0.10;0.10;;;;;;;18.43;69.19;100455.22;4974532;28;20027;-90
2021/07/31 02:32:53;;;;;;;0.10;0.10;;;;;;;18.22;70.19;100451.13;4975151;28;20113;-89
2021/07/31 02:35:19;;;;;;;0.10;0.10;;;;;;;18.25;69.33;100457.13;4974628;28;20038;-88
2021/07/31 02:37:46;;;;;;;0.10;0.10;;;;;;;18.22;69.65;100449.28;4975184;28;20027;-88
2021/07/31 02:40:13;;;;;;;0.10;0.10;;;;;;;18.22;69.82;100451.13;4974962;28;20066;-87
2021/07/31 02:42:40;;;;;;;0.10;0.10;;;;;;;18.36;69.18;100458.34;4974595;28;20037;-88
2021/07/31 02:45:07;;;;;;;0.20;0.20;;;;;;;18.44;69.11;100445.31;4975671;28;20398;-88
2021/07/31 02:47:34;;;;;;;0.20;0.20;;;;;;;18.14;71.23;100454.22;4974773;28;20142;-88
2021/07/31 02:50:02;;;;;;;1.05;1.05;;;;;;;18.33;70.47;100464.75;4975043;28;20394;-89
2021/07/31 02:52:28;;;;;;;0.20;0.20;;;;;;;18.23;70.82;100485.88;4974093;28;20034;-89
2021/07/31 02:54:55;;;;;;;0.10;0.10;;;;;;;18.15;70.34;100465.81;4975006;28;20080;-88
2021/07/31 02:57:22;;;;;;;0.10;0.10;;;;;;;18.24;70.43;100467.97;4974960;28;20034;-88
2021/07/31 02:59:48;;;;;;;0.10;0.10;;;;;;;18.25;70.13;100464.31;4974884;28;20034;-89
2021/07/31 03:02:15;;;;;;;0.30;0.30;;;;;;;18.22;69.88;100460.00;4974872;28;20474;-90
2021/07/31 03:04:42;;;;;;;0.10;0.10;;;;;;;18.18;69.66;100466.53;4974701;28;20023;-88
2021/07/31 03:07:09;;;;;;;0.10;0.10;;;;;;;18.29;69.45;100457.81;4974461;28;20045;-89
2021/07/31 03:09:36;;;;;;;0.08;0.08;;;;;;;18.15;69.79;100457.78;4975349;28;20037;-89
2021/07/31 03:12:03;;;;;;;5.57;1.55;;;;;;;18.17;69.51;100464.78;4974996;28;20475;-90
2021/07/31 03:14:30;;;;;;;0.20;0.20;;;;;;;18.09;69.42;100454.50;4973966;28;20041;-90
2021/07/31 03:16:56;;;;;;;0.68;0.68;;;;;;;18.29;69.21;100449.78;4974720;28;20034;-90
2021/07/31 03:19:23;;;;;;;0.57;0.57;;;;;;;18.27;68.86;100460.59;4974554;28;20394;-89
2021/07/31 03:21:50;;;;;;;0.63;0.35;;;;;;;18.27;68.69;100465.13;4973941;28;20483;-89
2021/07/31 03:24:17;;;;;;;0.73;0.73;;;;;;;18.16;69.01;100467.56;4973163;28;20394;-88
2021/07/31 03:26:43;;;;;;;2.65;1.95;;;;;;;18.21;68.80;100476.19;4973204;28;20069;-90
2021/07/31 03:29:10;;;;;;;0.30;0.30;;;;;;;18.43;68.04;100479.34;4973012;28;20042;-90
2021/07/31 03:31:36;;;;;;;0.40;0.40;;;;;;;18.34;68.02;100479.88;4973548;28;20054;-90
2021/07/31 03:34:02;;;;;;;0.10;0.10;;;;;;;18.29;68.56;100473.91;4972513;28;20045;-90
2021/07/31 03:36:29;;;;;;;0.10;0.10;;;;;;;18.20;68.48;100482.50;4973292;28;20058;-91
2021/07/31 03:38:55;;;;;;;0.45;0.45;;;;;;;18.13;68.56;100482.00;4973186;28;20034;-91
2021/07/31 03:41:21;;;;;;;0.20;0.20;;;;;;;18.10;68.26;100485.69;4973289;28;20066;-89
2021/07/31 03:43:47;;;;;;;0.10;0.10;;;;;;;18.27;67.75;100481.19;4972458;28;20118;-90
2021/07/31 03:46:13;;;;;;;4.00;0.85;;;;;;;18.24;67.95;100486.72;4976262;28;20042;-91
2021/07/31 03:48:40;;;;;;;0.20;0.20;;;;;;;18.22;67.63;100486.81;4972988;28;20041;-92
2021/07/31 03:51:06;;;;;;;0.10;0.10;;;;;;;18.15;67.97;100492.63;4973716;28;20030;-89
2021/07/31 03:53:32;;;;;;;0.10;0.10;;;;;;;18.29;67.80;100492.69;4973541;28;20045;-90
2021/07/31 03:56:02;;;;;;;0.08;0.08;;;;;;;18.35;67.82;100495.00;4973929;28;20039;-89
2021/07/31 03:58:28;;;;;;;0.10;0.10;;;;;;;18.27;67.87;100491.94;4973606;28;20023;-90
2021/07/31 04:00:54;;;;;;;0.10;0.10;;;;;;;18.21;68.11;100497.66;4973960;28;20038;-89
2021/07/31 04:03:20;;;;;;;0.10;0.10;;;;;;;18.31;67.58;100501.53;4975098;28;20045;-88
2021/07/31 04:05:46;;;;;;;0.20;0.20;;;;;;;18.14;67.74;100502.47;4977775;28;20030;-90
2021/07/31 04:08:13;;;;;;;1.08;0.38;;;;;;;18.18;67.56;100513.91;4977506;28;20035;-89
2021/07/31 04:10:41;;;;;;;0.38;0.38;;;;;;;18.10;67.99;100509.81;4978104;28;20113;-90
2021/07/31 04:13:07;;;;;;;0.10;0.10;;;;;;;18.07;68.00;100518.06;4977487;28;20026;-91
2021/07/31 04:15:33;;;;;;;0.75;0.57;;;;;;;18.21;67.50;100519.09;4978108;28;20494;-90
2021/07/31 04:18:00;;;;;;;0.20;0.20;;;;;;;17.74;68.58;100523.47;4977419;28;20482;-90
2021/07/31 04:20:27;;;;;;;0.10;0.10;;;;;;;18.24;67.20;100518.91;4977364;28;20035;-91
2021/07/31 04:22:53;;;;;;;0.50;0.50;;;;;;;18.12;67.21;100523.16;4977398;28;20031;-90
2021/07/31 04:25:19;;;;;;;0.10;0.10;;;;;;;18.04;67.63;100520.03;4976930;28;20505;-91
2021/07/31 04:27:47;;;;;;;0.20;0.20;;;;;;;17.93;67.55;100531.34;4976936;28;20033;-90
2021/07/31 04:30:13;;;;;;;0.10;0.10;;;;;;;18.07;66.79;100523.41;4961045;28;20034;-91
2021/07/31 04:32:39;;;;;;;1.27;1.17;;;;;;;18.06;66.56;100524.38;4977580;28;20770;-90
2021/07/31 04:35:06;;;;;;;0.10;0.10;;;;;;;18.20;66.31;100522.72;4977145;28;20042;-89
2021/07/31 04:37:33;;;;;;;0.30;0.30;;;;;;;18.16;66.32;100521.19;4977317;28;20031;-90
2021/07/31 04:39:59;;;;;;;0.10;0.10;;;;;;;18.20;66.10;100533.44;4976345;28;20466;-91
2021/07/31 04:42:25;;;;;;;0.63;0.63;;;;;;;18.18;66.11;100543.38;4958239;29;20062;-93
2021/07/31 04:44:51;;;;;;;0.10;0.10;;;;;;;18.20;66.14;100538.81;4963546;28;20443;-91
2021/07/31 04:47:18;;;;;;;0.10;0.10;;;;;;;18.18;65.81;100543.38;4977166;28;20379;-91
2021/07/31 04:49:44;;;;;;;0.08;0.08;;;;;;;18.21;65.58;100548.59;4979782;28;20404;-91
2021/07/31 04:52:10;;;;;;;0.20;0.20;;;;;;;18.21;65.67;100557.50;4982183;28;20043;-91
2021/07/31 04:54:40;;;;;;;0.40;0.35;;;;;;;18.35;65.10;100558.53;4976728;28;20089;-91
2021/07/31 04:57:07;;;;;;;1.88;1.77;;;;;;;18.18;65.37;100554.13;4976808;28;20085;-91
2021/07/31 04:59:33;;;;;;;0.10;0.10;;;;;;;18.32;65.17;100553.31;4976974;28;20066;-91
2021/07/31 05:01:59;;;;;;;0.10;0.10;;;;;;;18.39;64.99;100560.06;4977054;28;20047;-90
2021/07/31 05:04:26;;;;;;;0.10;0.10;;;;;;;18.16;65.48;100567.63;4976673;28;20105;-93
2021/07/31 05:06:53;;;;;;;0.10;0.10;;;;;;;18.22;65.58;100563.75;4976178;28;20130;-91
2021/07/31 05:09:21;;;;;;;0.10;0.10;;;;;;;18.27;65.49;100567.88;4976743;28;20089;-91
2021/07/31 05:11:47;;;;;;;0.20;0.20;;;;;;;18.36;65.41;100561.13;4976832;28;20034;-89
2021/07/31 05:14:14;;;;;;;0.10;0.10;;;;;;;18.27;65.85;100561.66;4976939;28;20106;-89
2021/07/31 05:16:41;;;;;;;0.13;0.13;;;;;;;18.46;65.53;100565.97;4975647;28;20027;-91
2021/07/31 05:19:07;;;;;;;0.10;0.10;;;;;;;18.21;65.94;100567.38;4975791;28;20146;-92
2021/07/31 05:21:33;;;;;;;0.10;0.10;;;;;;;18.29;65.75;100575.81;4976840;28;20058;-91
2021/07/31 05:23:59;;;;;;;0.10;0.10;;;;;;;18.22;66.48;100577.16;4976424;28;20042;-91
2021/07/31 05:26:25;;;;;;;0.10;0.10;;;;;;;18.49;65.76;100565.78;4975728;28;20042;-91
2021/07/31 05:28:51;;;;;;;0.43;0.43;;;;;;;18.61;65.36;100574.94;4976091;28;20064;-94
2021/07/31 05:31:21;;;;;;;0.00;0.00;;;;;;;18.34;66.57;100581.78;4976089;28;20093;-94
2021/07/31 05:33:47;;;;;;;0.30;0.30;;;;;;;18.40;65.91;100573.38;4976248;28;20037;-94
2021/07/31 05:36:13;;;;;;;0.10;0.10;;;;;;;18.48;65.64;100581.03;4976716;28;20034;-94
2021/07/31 05:38:40;;;;;;;0.10;0.10;;;;;;;18.47;65.79;100586.44;4976407;28;20438;-94
2021/07/31 05:41:13;;;;;;;0.10;0.10;;;;;;;18.53;65.72;100584.31;4976269;28;20041;-93
2021/07/31 05:43:39;;;;;;;;;;;;;;;18.45;65.18;100593.75;4977136;28;20062;-93
2021/07/31 05:46:05;;;;;;;0.10;0.10;;;;;;;18.49;65.34;100593.50;5026692;22;19921;-82
2021/07/31 05:48:31;;;;;;;0.10;0.10;;;;;;;18.43;65.33;100592.00;5034553;28;20034;-82
2021/07/31 05:50:57;;;;;;;0.10;0.10;;;;;;;18.64;64.96;100590.84;5027871;28;20493;-82
2021/07/31 05:53:24;;;;;;;0.10;0.10;;;;;;;18.47;65.40;100599.88;5032995;28;20445;-81
2021/07/31 05:55:52;;;;;;;0.03;0.03;;;;;;;18.55;64.60;100597.63;5030661;28;20468;-82
2021/07/31 05:58:18;;;;;;;0.65;0.45;;;;;;;18.58;64.54;100598.31;5022256;28;20080;-82
2021/07/31 06:00:44;;;;;;;0.10;0.10;;;;;;;18.64;64.35;100596.22;5018655;28;20097;-82
2021/07/31 06:03:10;;;;;;;0.10;0.10;;;;;;;18.79;63.68;100605.19;5015327;28;20376;-82
2021/07/31 06:05:36;;;;;;;0.30;0.30;;;;;;;18.80;63.75;100590.84;5027253;28;20441;-82
2021/07/31 06:08:03;;;;;;;0.10;0.10;;;;;;;18.52;64.01;100613.91;5020732;28;20065;-82
2021/07/31 06:10:29;;;;;;;0.10;0.10;;;;;;;18.70;63.66;100598.56;5024313;28;20072;-82
2021/07/31 06:12:56;;;;;;;0.03;0.03;;;;;;;18.66;63.76;100600.53;5015191;28;20088;-82
2021/07/31 06:15:23;;;;;;;0.85;0.85;;;;;;;18.84;63.55;100595.06;5024249;28;20065;-84
2021/07/31 06:17:49;;;;;;;0.10;0.10;;;;;;;18.91;63.28;100593.78;5033900;28;20119;-82
2021/07/31 06:20:15;;;;;;;0.55;0.55;;;;;;;18.91;63.43;100599.16;5033790;28;20035;-82
2021/07/31 06:22:41;;;;;;;0.20;0.20;;;;;;;18.95;63.63;100600.69;5017255;28;20036;-84
2021/07/31 06:25:07;;;;;;;0.10;0.10;;;;;;;18.92;63.69;100606.25;5032511;28;20041;-84
2021/07/31 06:27:34;;;;;;;0.28;0.28;;;;;;;18.90;63.87;100606.34;5020376;28;20079;-83
2021/07/31 06:30:00;;;;;;;0.10;0.10;;;;;;;19.15;63.01;100617.44;5034576;28;20038;-82
2021/07/31 06:32:26;;;;;;;0.10;0.10;;;;;;;19.16;63.25;100627.22;5035632;28;20065;-82
2021/07/31 06:34:53;;;;;;;0.10;0.10;;;;;;;19.25;62.73;100632.03;5036164;28;20449;-82
2021/07/31 06:37:19;;;;;;;0.10;0.10;;;;;;;19.44;62.49;100630.94;5034106;28;20116;-83
2021/07/31 06:39:45;;;;;;;0.10;0.10;;;;;;;19.13;63.32;100630.09;5032946;28;20030;-83
2021/07/31 06:42:11;;;;;;;0.22;0.22;;;;;;;19.17;62.98;100626.28;5033596;28;20080;-82
2021/07/31 06:44:37;;;;;;;0.10;0.10;;;;;;;19.30;62.77;100627.28;5034732;28;20069;-83
2021/07/31 06:47:03;;;;;;;0.10;0.10;;;;;;;19.35;62.57;100635.94;5028038;28;20042;-83
2021/07/31 06:49:29;;;;;;;0.10;0.10;;;;;;;19.45;62.58;100629.97;5014469;28;20066;-83
2021/07/31 06:51:56;;;;;;;0.10;0.10;;;;;;;19.35;63.24;100630.56;5020511;28;20068;-84
2021/07/31 06:54:22;;;;;;;0.20;0.20;;;;;;;19.34;63.78;100636.88;5033444;28;20025;-83
2021/07/31 06:56:48;;;;;;;0.10;0.10;;;;;;;19.17;64.41;100620.91;5015191;28;20088;-84
2021/07/31 06:59:14;;;;;;;1.77;1.45;;;;;;;19.37;63.74;100643.88;5034367;28;20025;-84
2021/07/31 07:01:40;;;;;;;0.10;0.10;;;;;;;19.42;63.60;100632.88;5033093;28;20374;-84
2021/07/31 07:04:07;;;;;;;0.10;0.10;;;;;;;19.46;63.33;100637.94;5027901;28;20038;-83
2021/07/31 07:06:33;;;;;;;0.10;0.10;;;;;;;19.46;63.18;100640.63;5014901;28;20025;-83
2021/07/31 07:08:59;;;;;;;0.10;0.10;;;;;;;19.68;63.01;100626.75;5014091;28;20069;-83
2021/07/31 07:11:25;;;;;;;0.10;0.10;;;;;;;19.55;62.79;100623.09;5024220;28;20030;-84
2021/07/31 07:13:51;;;;;;;0.05;0.05;;;;;;;19.79;62.23;100633.28;5033159;28;20052;-84
2021/07/31 07:16:17;;;;;;;0.10;0.10;;;;;;;19.85;61.60;100649.06;5018045;28;20045;-83
2021/07/31 07:18:43;;;;;;;0.10;0.10;;;;;;;19.49;63.68;100653.00;5010247;28;20040;-83
2021/07/31 07:21:10;;;;;;;1.23;1.23;;;;;;;19.31;64.57;100671.97;5030801;28;20025;-82
2021/07/31 07:23:37;;;;;;;0.20;0.20;;;;;;;18.81;67.58;100681.16;5029456;28;20017;-82
2021/07/31 07:26:08;;;;;;;0.10;0.10;;;;;;;19.06;66.17;100678.78;5012935;28;20109;-82
2021/07/31 07:28:34;;;;;;;0.10;0.10;;;;;;;18.69;68.48;100678.22;5022813;28;20044;-82
2021/07/31 07:31:01;;;;;;;0.65;0.65;;;;;;;18.94;68.14;100673.28;5019290;28;20048;-81
2021/07/31 07:33:27;;;;;;;0.10;0.10;;;;;;;18.75;69.09;100679.66;5031935;28;20033;-82
2021/07/31 07:35:54;;;;;;;0.20;0.20;;;;;;;18.79;69.36;100675.00;5033186;28;20048;-81
2021/07/31 07:38:24;;;;;;;0.30;0.30;;;;;;;18.73;69.06;100687.81;5031223;28;20040;-83
2021/07/31 07:40:52;;;;;;;0.10;0.10;;;;;;;18.73;69.09;100685.13;5033014;28;20034;-82
2021/07/31 07:43:30;;;;;;;0.20;0.20;;;;;;;18.87;69.24;100680.78;5023127;28;20551;-82
2021/07/31 07:46:29;;;;;;;0.47;0.30;;;;;;;18.67;69.75;100688.16;5031455;28;20037;-83
2021/07/31 07:48:55;;;;;;;0.25;0.25;;;;;;;18.74;69.46;100691.34;5012516;28;20129;-83
2021/07/31 07:51:21;;;;;;;0.10;0.10;;;;;;;18.94;69.27;100708.16;5033531;28;20029;-83
2021/07/31 07:53:47;;;;;;;0.30;0.30;;;;;;;19.07;69.19;100701.16;5033727;28;20041;-84
2021/07/31 07:56:14;;;;;;;0.10;0.10;;;;;;;18.90;69.25;100703.00;5033208;28;20113;-83
2021/07/31 07:58:40;;;;;;;0.13;0.13;;;;;;;18.88;69.30;100706.69;5027813;28;20041;-83
2021/07/31 08:01:09;;;;;;;0.22;0.22;;;;;;;18.85;69.42;100706.84;4996990;28;20105;-83
2021/07/31 08:03:37;;;;;;;0.10;0.10;;;;;;;18.96;69.36;100699.06;5013675;28;20432;-83
2021/07/31 08:06:03;;;;;;;0.10;0.10;;;;;;;18.81;69.86;100707.97;5013173;28;20030;-82
2021/07/31 08:08:29;;;;;;;0.10;0.10;;;;;;;18.60;70.63;100708.22;5014318;28;20041;-82
2021/07/31 08:10:55;;;;;;;1.75;1.65;;;;;;;18.87;70.04;100707.63;5013447;28;20481;-82
2021/07/31 08:13:21;;;;;;;0.10;0.10;;;;;;;18.92;70.14;100719.84;5013974;28;20034;-82
2021/07/31 08:15:48;;;;;;;0.10;0.10;;;;;;;18.71;71.08;100727.28;5032824;28;20437;-81
2021/07/31 08:18:14;;;;;;;0.73;0.57;;;;;;;18.86;70.95;100725.53;5031152;28;20096;-82
2021/07/31 08:20:40;;;;;;;0.10;0.10;;;;;;;18.73;71.32;100728.06;5032353;28;20025;-83
2021/07/31 08:23:06;;;;;;;0.10;0.10;;;;;;;18.71;71.16;100742.53;5031406;28;20030;-81
2021/07/31 08:25:32;;;;;;;0.10;0.10;;;;;;;18.83;70.62;100735.59;5031104;28;20075;-82
2021/07/31 08:27:59;;;;;;;0.13;0.13;;;;;;;18.90;70.21;100720.88;5030575;28;20092;-83
2021/07/31 08:30:26;;;;;;;0.20;0.20;;;;;;;18.88;70.66;100738.91;5031158;28;20030;-82
2021/07/31 08:32:52;;;;;;;0.10;0.10;;;;;;;19.05;69.92;100728.09;5025756;28;20064;-83
2021/07/31 08:35:18;;;;;;;0.20;0.20;;;;;;;18.83;71.23;100735.59;5018728;28;20026;-83
2021/07/31 08:37:46;;;;;;;0.10;0.10;;;;;;;19.11;70.79;100734.06;5030692;28;20081;-83
2021/07/31 08:40:14;;;;;;;0.10;0.10;;;;;;;19.12;70.87;100727.75;5024927;28;20100;-83
2021/07/31 08:42:41;;;;;;;0.28;0.28;;;;;;;19.21;71.20;100727.19;5028791;28;20033;-83
2021/07/31 08:45:09;;;;;;;0.10;0.10;;;;;;;19.23;71.12;100741.41;5038317;22;20041;-90
2021/07/31 08:47:37;;;;;;;0.10;0.10;;;;;;;19.45;70.43;100732.09;5001057;28;20092;-89
2021/07/31 08:50:06;;;;;;;0.52;0.52;;;;;;;19.62;70.94;100734.63;5013642;28;20022;-87
2021/07/31 08:52:35;;;;;;;0.10;0.10;;;;;;;19.75;70.12;100728.50;5010023;28;20029;-89
2021/07/31 08:55:01;;;;;;;0.25;0.25;;;;;;;19.67;70.24;100727.16;5012095;28;20075;-92
2021/07/31 08:57:27;;;;;;;0.10;0.10;;;;;;;19.93;69.55;100742.72;5007468;28;20026;-91
2021/07/31 08:59:53;;;;;;;0.38;0.38;;;;;;;19.90;69.52;100732.13;5011255;28;20042;-88
2021/07/31 09:02:20;;;;;;;0.10;0.10;;;;;;;19.80;69.96;100747.91;5006841;28;20026;-89
2021/07/31 09:04:51;;;;;;;0.20;0.20;;;;;;;20.00;69.17;100744.94;5015537;28;20026;-87
2021/07/31 09:07:18;;;;;;;0.17;0.17;;;;;;;20.02;69.37;100751.06;5015694;28;20088;-89
2021/07/31 09:09:46;;;;;;;0.75;0.75;;;;;;;19.87;68.81;100765.44;5015380;28;20022;-89
2021/07/31 09:12:12;;;;;;;0.40;0.40;;;;;;;19.76;68.65;100784.00;5014476;28;20034;-90
2021/07/31 09:14:47;;;;;;;0.10;0.10;;;;;;;19.48;68.37;100770.38;5015262;28;20048;-88
2021/07/31 09:17:28;;;;;;;0.10;0.10;;;;;;;19.20;68.90;100771.13;5014969;28;20788;-82
2021/07/31 09:19:56;;;;;;;0.28;0.17;;;;;;;19.02;69.88;100779.28;5011492;28;20477;-83
2021/07/31 09:22:24;;;;;;;0.40;0.40;;;;;;;19.27;69.30;100777.03;5009823;28;20030;-82
2021/07/31 09:25:12;;;;;;;1.02;1.00;;;;;;;19.27;70.73;100780.56;5012015;28;20050;-82
2021/07/31 09:27:39;;;;;;;0.10;0.10;;;;;;;19.57;69.91;100779.72;5011133;28;20065;-82
2021/07/31 09:30:06;;;;;;;0.20;0.20;;;;;;;19.67;69.62;100780.06;5011118;28;20068;-83
2021/07/31 09:32:44;;;;;;;0.20;0.20;;;;;;;19.50;69.20;100797.16;5007621;28;20466;-83
2021/07/31 09:35:27;;;;;;;0.10;0.10;;;;;;;19.44;69.84;100797.50;5006724;28;20544;-84
2021/07/31 09:37:55;;;;;;;1.80;0.60;;;;;;;19.44;68.95;100805.56;5007152;28;20030;-83
2021/07/31 09:40:31;;;;;;;0.10;0.10;;;;;;;19.50;68.91;100794.47;5009094;28;20026;-84
2021/07/31 09:43:12;;;;;;;0.52;0.52;;;;;;;19.52;69.59;100795.25;5009051;28;20117;-82
2021/07/31 09:45:39;;;;;;;0.47;0.47;;;;;;;19.66;69.02;100797.97;4986004;28;20470;-83
2021/07/31 09:48:11;;;;;;;3.33;1.13;;;;;;;19.48;69.02;100812.53;4990934;28;20501;-93
2021/07/31 09:50:40;;;;;;;;;;;;;;;19.27;68.89;100820.84;5006298;28;20034;-94
2021/07/31 09:55:57;;;;;;;0.10;0.10;;;;;;;19.32;69.21;100821.44;5150866;27;20397;-93
2021/07/31 09:58:26;;;;;;;0.10;0.10;;;;;;;19.26;69.25;100829.84;5137259;27;20023;-87
2021/07/31 10:00:54;;;;;;;0.10;0.10;;;;;;;19.46;68.94;100819.81;5142184;27;20368;-88
2021/07/31 10:03:21;;;;;;;0.10;0.10;;;;;;;19.29;68.60;100835.06;5144424;27;20358;-89
2021/07/31 10:05:48;;;;;;;0.30;0.30;;;;;;;19.38;68.90;100828.31;5141315;27;20055;-92
2021/07/31 10:08:15;;;;;;;0.10;0.10;;;;;;;19.70;68.45;100818.38;5142588;27;20063;-89
2021/07/31 10:10:42;;;;;;;0.35;0.35;;;;;;;19.71;68.19;100821.91;5150306;27;20027;-90
2021/07/31 10:13:12;;;;;;;3.03;2.08;;;;;;;19.69;68.09;100816.63;5143533;27;20037;-90
2021/07/31 10:15:41;;;;;;;0.20;0.20;;;;;;;19.88;67.73;100815.56;5143374;27;20035;-90
2021/07/31 10:18:11;;;;;;;0.43;0.43;;;;;;;19.94;67.93;100825.97;5142224;27;20027;-93
2021/07/31 10:20:38;;;;;;;0.10;0.10;;;;;;;20.10;67.80;100835.78;5142569;27;20377;-91
2021/07/31 10:23:07;;;;;;;0.20;0.20;;;;;;;20.09;67.60;100840.31;5136706;27;20054;-92
2021/07/31 10:26:13;;;;;;;0.10;0.10;;;;;;;20.21;67.65;100838.69;5139346;27;20027;-91
2021/07/31 10:28:41;;;;;;;0.10;0.10;;;;;;;20.24;67.76;100829.56;5142781;27;20043;-89
2021/07/31 10:31:31;;;;;;;0.10;0.10;;;;;;;20.46;67.61;100827.31;5137325;27;20031;-93
2021/07/31 10:33:58;;;;;;;0.10;0.10;;;;;;;20.67;67.79;100841.25;5141163;27;20051;-95
2021/07/31 10:36:39;;;;;;;0.35;0.28;;;;;;;20.55;64.32;100841.16;5140609;27;20023;-92
2021/07/31 10:42:11;;;;;;;0.10;0.10;;;;;;;20.92;62.79;100833.47;5075084;27;20932;-91
2021/07/31 10:45:17;;;;;;;0.20;0.20;;;;;;;21.26;62.50;100831.28;5059480;28;20131;-91
2021/07/31 10:47:46;;;;;;;0.10;0.10;;;;;;;21.52;63.79;100845.78;5050179;28;20483;-93
2021/07/31 10:53:14;;;;;;;0.10;0.10;;;;;;;21.49;61.18;100844.13;5085668;27;20401;-93
2021/07/31 10:58:33;;;;;;;0.70;0.70;;;;;;;21.21;59.34;100845.09;5150187;27;20397;-94
2021/07/31 11:01:21;;;;;;;0.20;0.20;;;;;;;21.37;59.27;100849.47;5149391;27;20031;-92
2021/07/31 11:03:48;;;;;;;0.30;0.30;;;;;;;21.47;59.98;100854.16;5150423;27;20056;-92
2021/07/31 11:06:14;;;;;;;0.10;0.10;;;;;;;21.10;59.38;100853.00;5149312;27;20038;-91
2021/07/31 11:11:29;;;;;;;0.13;0.13;;;;;;;21.52;60.37;100864.66;5077965;28;20412;-88
2021/07/31 11:13:56;;;;;;;0.20;0.20;;;;;;;21.58;59.50;100880.44;5064987;28;20476;-89
2021/07/31 11:16:23;;;;;;;0.10;0.10;;;;;;;21.95;59.26;100858.22;5053638;28;20051;-91
2021/07/31 11:18:54;;;;;;;0.30;0.30;;;;;;;22.10;57.54;100861.72;5054776;28;20089;-92
2021/07/31 11:24:08;;;;;;;0.77;0.77;;;;;;;22.23;57.45;100868.00;5078098;28;20426;-90
2021/07/31 11:26:41;;;;;;;0.10;0.10;;;;;;;22.44;57.17;100876.50;5048952;28;20040;-90
2021/07/31 11:29:12;;;;;;;0.13;0.13;;;;;;;22.18;57.17;100872.88;5048437;28;20035;-92
2021/07/31 11:31:40;;;;;;;0.10;0.10;;;;;;;22.14;55.43;100887.50;5048333;28;20033;-93
2021/07/31 11:34:12;;;;;;;0.40;0.40;;;;;;;22.26;55.05;100881.28;5048456;28;20025;-93
2021/07/31 11:36:39;;;;;;;0.10;0.10;;;;;;;22.41;55.33;100878.53;5046515;28;20022;-92
2021/07/31 11:39:10;;;;;;;1.00;0.32;;;;;;;22.57;55.47;100862.97;5048204;28;20029;-93
2021/07/31 11:41:40;;;;;;;0.30;0.30;;;;;;;22.88;55.59;100878.84;5043216;28;20025;-92
2021/07/31 11:44:22;;;;;;;0.10;0.10;;;;;;;22.93;53.79;100885.66;5047607;28;20025;-92
2021/07/31 11:46:49;;;;;;;0.10;0.10;;;;;;;23.06;53.59;100884.78;5047662;28;20037;-92
2021/07/31 11:49:34;;;;;;;0.32;0.32;;;;;;;22.82;53.58;100882.84;5049271;28;20025;-93